Time;durP1;ratioP1;P1;durP2;ratioP2;P2;SDS_P1;SDS_P2;PMS_P1;PMS_P2;Temp;Humidity;BMP_temperature;BMP_pressure;BME280_temperature;BME280_humidity;BME280_pressure;Samples;Min_cycle;Max_cycle;Signal;HPM_P1;HPM_P2
2023/03/17 00:00:34;;;;;;;;;;;7.30;98.30;;;;;;5046493;28;19913;-76
2023/03/17 00:03:00;;;;;;;;;;;7.30;98.40;;;;;;5067825;28;19917;-76
2023/03/17 00:05:28;;;;;;;;;;;7.30;98.30;;;;;;5045148;28;19919;-76
2023/03/17 00:07:57;;;;;;;;;;;7.30;98.30;;;;;;5067875;28;19913;-76
2023/03/17 00:10:24;;;;;;;;;;;7.30;98.20;;;;;;5063755;28;19912;-76
2023/03/17 00:12:50;;;;;;;;;;;7.40;98.20;;;;;;5067765;28;20741;-76
2023/03/17 00:15:16;;;;;;;;;;;7.30;98.10;;;;;;5063787;28;20281;-76
2023/03/17 00:17:43;;;;;;;;;;;7.30;98.20;;;;;;5067569;28;19912;-76
2023/03/17 00:20:12;;;;;;;;;;;7.30;98.00;;;;;;5063480;28;20395;-76
2023/03/17 00:22:38;;;;;;;;;;;7.30;98.10;;;;;;5067160;28;19913;-76
2023/03/17 00:25:15;;;;;;;;;;;7.40;98.10;;;;;;5048865;28;20389;-76
2023/03/17 00:27:41;;;;;;;;;;;7.30;98.00;;;;;;5067441;28;19948;-76
2023/03/17 00:30:08;;;;;;;;;;;7.30;98.10;;;;;;5063506;28;19997;-76
2023/03/17 00:32:33;;;;;;;;;;;7.30;98.10;;;;;;5061355;28;20472;-76
2023/03/17 00:34:59;;;;;;;;;;;7.40;98.30;;;;;;5058171;28;20039;-76
2023/03/17 00:37:24;;;;;;;;;;;7.30;98.10;;;;;;5048577;28;19915;-76
2023/03/17 00:39:50;;;;;;;;;;;7.40;98.20;;;;;;5063774;28;20407;-76
2023/03/17 00:42:16;;;;;;;;;;;7.30;98.20;;;;;;5049082;28;20790;-76
2023/03/17 00:44:41;;;;;;;;;;;7.30;98.20;;;;;;5063424;28;19912;-76
2023/03/17 00:47:08;;;;;;;;;;;7.30;98.00;;;;;;5066956;28;19912;-76
2023/03/17 00:49:34;;;;;;;;;;;7.30;98.20;;;;;;5063575;28;19920;-76
2023/03/17 00:52:00;;;;;;;;;;;7.30;98.20;;;;;;5066700;28;19917;-76
2023/03/17 00:54:25;;;;;;;;;;;7.30;98.10;;;;;;5044973;28;20048;-76
2023/03/17 00:56:51;;;;;;;;;;;7.30;98.20;;;;;;5066985;28;20079;-76
2023/03/17 00:59:20;;;;;;;;;;;7.40;98.20;;;;;;5063006;28;20034;-76
2023/03/17 01:01:46;;;;;;;;;;;7.30;98.20;;;;;;5060775;28;20030;-76
2023/03/17 01:04:12;;;;;;;;;;;7.30;98.20;;;;;;5063483;28;19913;-76
2023/03/17 01:06:38;;;;;;;;;;;7.30;98.20;;;;;;5066688;28;19923;-76
2023/03/17 01:09:03;;;;;;;;;;;7.30;98.30;;;;;;5063353;28;19989;-75
2023/03/17 01:11:29;;;;;;;;;;;7.30;98.30;;;;;;5064397;28;19916;-76
2023/03/17 01:13:55;;;;;;;;;;;7.30;98.30;;;;;;5064304;28;20288;-76
2023/03/17 01:16:21;;;;;;;;;;;7.30;98.30;;;;;;5065875;28;19912;-76
2023/03/17 01:18:47;;;;;;;;;;;7.30;98.40;;;;;;5065597;28;19923;-76
2023/03/17 01:21:12;;;;;;;;;;;7.30;98.30;;;;;;5048576;28;20365;-76
2023/03/17 01:23:38;;;;;;;;;;;7.30;98.30;;;;;;5066733;28;19913;-76
2023/03/17 01:26:05;;;;;;;;;;;7.30;98.30;;;;;;5068432;28;19957;-76
2023/03/17 01:28:31;;;;;;;;;;;7.30;98.30;;;;;;5068981;28;20022;-76
2023/03/17 01:30:56;;;;;;;;;;;7.30;98.30;;;;;;5047690;28;19916;-76
2023/03/17 01:33:22;;;;;;;;;;;7.30;98.40;;;;;;5069962;28;19913;-76
2023/03/17 01:35:48;;;;;;;;;;;7.30;98.40;;;;;;5061033;28;19912;-76
2023/03/17 01:38:14;;;;;;;;;;;7.20;98.40;;;;;;5070383;28;20411;-76
2023/03/17 01:40:48;;;;;;;;;;;7.20;98.30;;;;;;5066181;28;19938;-76
2023/03/17 01:43:16;;;;;;;;;;;7.20;98.30;;;;;;5070227;28;19919;-76
2023/03/17 01:46:00;;;;;;;;;;;7.20;98.40;;;;;;5071700;28;20696;-76
2023/03/17 01:48:27;;;;;;;;;;;7.20;98.40;;;;;;5051338;28;20002;-76
2023/03/17 01:50:53;;;;;;;;;;;7.20;98.40;;;;;;5067057;28;20007;-76
2023/03/17 01:53:20;;;;;;;;;;;7.20;98.50;;;;;;5069840;28;20023;-76
2023/03/17 01:55:48;;;;;;;;;;;7.20;98.50;;;;;;5048763;28;19912;-76
2023/03/17 01:58:14;;;;;;;;;;;7.20;98.50;;;;;;5063966;28;19908;-76
2023/03/17 02:00:40;;;;;;;;;;;7.20;98.50;;;;;;5065366;28;20377;-76
2023/03/17 02:03:05;;;;;;;;;;;7.20;98.50;;;;;;5069962;28;19915;-76
2023/03/17 02:05:32;;;;;;;;;;;7.20;98.40;;;;;;5059770;28;20510;-76
2023/03/17 02:07:58;;;;;;;;;;;7.20;98.50;;;;;;5069931;28;19913;-76
2023/03/17 02:10:25;;;;;;;;;;;7.20;98.40;;;;;;5065704;28;19990;-76
2023/03/17 02:12:52;;;;;;;;;;;7.20;98.50;;;;;;5046203;28;19990;-76
2023/03/17 02:15:17;;;;;;;;;;;7.20;98.50;;;;;;5065763;28;19917;-76
2023/03/17 02:17:43;;;;;;;;;;;7.20;98.40;;;;;;5069434;28;20034;-76
2023/03/17 02:20:14;;;;;;;;;;;7.10;98.40;;;;;;5065547;28;20332;-76
2023/03/17 02:22:41;;;;;;;;;;;7.10;98.40;;;;;;5069000;28;19909;-76
2023/03/17 02:25:07;;;;;;;;;;;7.10;98.40;;;;;;5065627;28;19919;-76
2023/03/17 02:27:38;;;;;;;;;;;7.20;98.50;;;;;;5069374;28;19912;-76
2023/03/17 02:30:05;;;;;;;;;;;7.10;98.50;;;;;;5065578;28;19991;-76
2023/03/17 02:32:33;;;;;;;;;;;7.10;98.50;;;;;;5050926;28;19908;-76
2023/03/17 02:34:59;;;;;;;;;;;7.10;98.50;;;;;;5058923;28;19921;-76
2023/03/17 02:37:24;;;;;;;;;;;7.10;98.50;;;;;;5068566;28;19966;-76
2023/03/17 02:39:50;;;;;;;;;;;7.10;98.50;;;;;;5065476;28;19966;-76
2023/03/17 02:42:15;;;;;;;;;;;7.10;98.50;;;;;;5068705;28;19999;-76
2023/03/17 02:44:41;;;;;;;;;;;7.10;98.50;;;;;;5065139;28;20687;-76
2023/03/17 02:47:07;;;;;;;;;;;7.10;98.50;;;;;;5069012;28;20711;-76
2023/03/17 02:49:33;;;;;;;;;;;7.10;98.60;;;;;;5065456;28;19919;-76
2023/03/17 02:51:59;;;;;;;;;;;7.10;98.50;;;;;;5068502;28;20027;-76
2023/03/17 02:54:24;;;;;;;;;;;7.10;98.50;;;;;;5065080;28;20003;-76
2023/03/17 02:56:50;;;;;;;;;;;7.10;98.50;;;;;;5065085;28;20309;-76
2023/03/17 02:59:15;;;;;;;;;;;7.10;98.60;;;;;;5062825;28;19916;-76
2023/03/17 03:01:41;;;;;;;;;;;7.10;98.50;;;;;;5068202;28;19944;-76
2023/03/17 03:04:07;;;;;;;;;;;7.10;98.60;;;;;;5063153;28;20315;-76
2023/03/17 03:06:33;;;;;;;;;;;7.10;98.40;;;;;;5055205;28;19917;-76
2023/03/17 03:08:58;;;;;;;;;;;7.00;98.50;;;;;;5062381;28;19919;-76
2023/03/17 03:11:24;;;;;;;;;;;7.00;98.40;;;;;;5060545;28;19934;-76
2023/03/17 03:13:49;;;;;;;;;;;7.10;98.40;;;;;;5068267;28;20415;-76
2023/03/17 03:16:15;;;;;;;;;;;7.00;98.40;;;;;;5065536;28;19913;-76
2023/03/17 03:18:41;;;;;;;;;;;7.00;98.50;;;;;;5068151;28;20513;-76
2023/03/17 03:21:06;;;;;;;;;;;7.00;98.40;;;;;;5064965;28;20435;-76
2023/03/17 03:23:32;;;;;;;;;;;7.00;98.40;;;;;;5068325;28;19985;-76
2023/03/17 03:25:58;;;;;;;;;;;7.00;98.40;;;;;;5065582;28;20011;-76
2023/03/17 03:28:24;;;;;;;;;;;7.00;98.40;;;;;;5068126;28;20051;-76
2023/03/17 03:30:49;;;;;;;;;;;7.00;98.40;;;;;;5048984;28;19967;-76
2023/03/17 03:33:15;;;;;;;;;;;7.00;98.40;;;;;;5067751;28;19908;-76
2023/03/17 03:35:41;;;;;;;;;;;7.00;98.40;;;;;;5065299;28;19915;-76
2023/03/17 03:38:07;;;;;;;;;;;7.00;98.40;;;;;;5049944;28;19995;-75
2023/03/17 03:40:33;;;;;;;;;;;7.00;98.30;;;;;;5064801;28;20062;-75
2023/03/17 03:42:58;;;;;;;;;;;6.90;98.40;;;;;;5067813;28;20016;-76
2023/03/17 03:45:24;;;;;;;;;;;6.90;98.30;;;;;;5068568;28;19917;-75
2023/03/17 03:47:50;;;;;;;;;;;7.00;98.30;;;;;;5068253;28;19924;-75
2023/03/17 03:50:16;;;;;;;;;;;6.90;98.30;;;;;;5049065;28;19916;-75
2023/03/17 03:52:41;;;;;;;;;;;6.90;98.30;;;;;;5065222;28;20572;-75
2023/03/17 03:55:07;;;;;;;;;;;6.90;98.40;;;;;;5067196;28;20513;-76
2023/03/17 03:57:33;;;;;;;;;;;6.90;98.40;;;;;;5059407;28;19912;-76
2023/03/17 03:59:59;;;;;;;;;;;6.90;98.40;;;;;;5070144;28;19927;-75
2023/03/17 04:02:24;;;;;;;;;;;6.90;98.50;;;;;;5071703;28;20389;-76
2023/03/17 04:04:50;;;;;;;;;;;6.90;98.40;;;;;;5073134;28;19908;-76
2023/03/17 04:07:16;;;;;;;;;;;6.90;98.30;;;;;;5064663;28;19912;-76
2023/03/17 04:09:41;;;;;;;;;;;6.90;98.40;;;;;;5067899;28;19954;-75
2023/03/17 04:12:07;;;;;;;;;;;6.90;98.40;;;;;;5064159;28;19920;-76
2023/03/17 04:14:32;;;;;;;;;;;6.90;98.30;;;;;;5049617;28;19971;-76
2023/03/17 04:16:58;;;;;;;;;;;6.90;98.30;;;;;;5064442;28;20481;-76
2023/03/17 04:19:23;;;;;;;;;;;6.80;98.30;;;;;;5067473;28;19916;-75
2023/03/17 04:21:49;;;;;;;;;;;6.90;98.40;;;;;;5048871;28;19916;-76
2023/03/17 04:24:15;;;;;;;;;;;6.90;98.30;;;;;;5067622;28;19912;-76
2023/03/17 04:26:41;;;;;;;;;;;6.90;98.40;;;;;;5064718;28;19920;-76
2023/03/17 04:29:14;;;;;;;;;;;6.80;98.30;;;;;;5067476;28;20004;-75
2023/03/17 04:31:40;;;;;;;;;;;6.80;98.30;;;;;;5064175;28;19916;-76
2023/03/17 04:34:06;;;;;;;;;;;6.80;98.30;;;;;;5067521;28;19995;-76
2023/03/17 04:36:31;;;;;;;;;;;6.80;98.30;;;;;;5064248;28;20007;-75
2023/03/17 04:38:57;;;;;;;;;;;6.80;98.40;;;;;;5067485;28;20663;-75
2023/03/17 04:41:22;;;;;;;;;;;6.80;98.40;;;;;;5064222;28;19958;-76
2023/03/17 04:43:48;;;;;;;;;;;6.80;98.40;;;;;;5067634;28;19919;-76
2023/03/17 04:46:14;;;;;;;;;;;6.80;98.40;;;;;;5064379;28;20289;-76
2023/03/17 04:48:40;;;;;;;;;;;6.80;98.40;;;;;;5073480;28;19920;-75
2023/03/17 04:51:05;;;;;;;;;;;6.80;98.40;;;;;;5074514;28;19912;-75
2023/03/17 04:53:31;;;;;;;;;;;6.80;98.40;;;;;;5070385;28;19920;-75
2023/03/17 04:55:57;;;;;;;;;;;6.80;98.40;;;;;;5064637;28;20406;-76
2023/03/17 04:58:23;;;;;;;;;;;6.80;98.40;;;;;;5062668;28;20266;-75
2023/03/17 05:00:49;;;;;;;;;;;6.80;98.40;;;;;;5068225;28;20180;-76
2023/03/17 05:03:15;;;;;;;;;;;6.80;98.40;;;;;;5050991;28;19913;-76
2023/03/17 05:05:40;;;;;;;;;;;6.80;98.40;;;;;;5068294;28;19928;-75
2023/03/17 05:08:05;;;;;;;;;;;6.80;98.40;;;;;;5070909;28;19912;-75
2023/03/17 05:10:31;;;;;;;;;;;6.80;98.40;;;;;;5051184;28;20357;-75
2023/03/17 05:12:56;;;;;;;;;;;6.80;98.40;;;;;;5068424;28;19986;-75
2023/03/17 05:15:22;;;;;;;;;;;6.80;98.40;;;;;;5069411;28;19961;-76
2023/03/17 05:17:47;;;;;;;;;;;6.80;98.40;;;;;;5069666;28;19940;-75
2023/03/17 05:20:13;;;;;;;;;;;6.80;98.40;;;;;;5052161;28;19916;-75
2023/03/17 05:22:39;;;;;;;;;;;6.70;98.40;;;;;;5068229;28;20636;-75
2023/03/17 05:25:05;;;;;;;;;;;6.80;98.40;;;;;;5070349;28;19909;-76
2023/03/17 05:27:31;;;;;;;;;;;6.70;98.40;;;;;;5068394;28;19912;-76
2023/03/17 05:29:58;;;;;;;;;;;6.80;98.50;;;;;;5070263;28;20418;-76
2023/03/17 05:32:24;;;;;;;;;;;6.70;98.40;;;;;;5067392;28;20017;-75
2023/03/17 05:34:50;;;;;;;;;;;6.70;98.40;;;;;;5070914;28;20433;-75
2023/03/17 05:37:16;;;;;;;;;;;6.70;98.40;;;;;;5067273;28;19913;-75
2023/03/17 05:39:42;;;;;;;;;;;6.70;98.50;;;;;;5070840;28;19932;-74
2023/03/17 05:42:08;;;;;;;;;;;6.70;98.40;;;;;;5049253;28;19920;-76
2023/03/17 05:44:34;;;;;;;;;;;6.70;98.40;;;;;;5070779;28;19908;-76
2023/03/17 05:46:59;;;;;;;;;;;6.70;98.40;;;;;;5076337;28;19973;-75
2023/03/17 05:49:26;;;;;;;;;;;6.70;98.40;;;;;;5071048;28;19912;-75
2023/03/17 05:51:51;;;;;;;;;;;6.70;98.40;;;;;;5067013;28;19908;-76
2023/03/17 05:54:17;;;;;;;;;;;6.70;98.40;;;;;;5070257;28;19916;-76
2023/03/17 05:56:42;;;;;;;;;;;6.70;98.40;;;;;;5066958;28;20011;-75
2023/03/17 05:59:09;;;;;;;;;;;6.70;98.40;;;;;;5069561;28;19908;-76
2023/03/17 06:01:34;;;;;;;;;;;6.70;98.30;;;;;;5066819;28;19912;-75
2023/03/17 06:04:00;;;;;;;;;;;6.70;98.30;;;;;;5070167;28;19909;-76
2023/03/17 06:06:26;;;;;;;;;;;6.70;98.30;;;;;;5066968;28;20327;-75
2023/03/17 06:08:52;;;;;;;;;;;6.70;98.40;;;;;;5069895;28;19958;-75
2023/03/17 06:11:19;;;;;;;;;;;6.70;98.30;;;;;;5047419;28;19974;-75
2023/03/17 06:13:45;;;;;;;;;;;6.70;98.30;;;;;;5070044;28;20490;-75
2023/03/17 06:16:11;;;;;;;;;;;6.70;98.30;;;;;;5046859;28;19948;-75
2023/03/17 06:18:37;;;;;;;;;;;6.70;98.30;;;;;;5070100;28;19952;-75
2023/03/17 06:21:02;;;;;;;;;;;6.70;98.30;;;;;;5066587;28;20357;-76
2023/03/17 06:23:28;;;;;;;;;;;6.70;98.40;;;;;;5069450;28;19913;-76
2023/03/17 06:25:53;;;;;;;;;;;6.70;98.30;;;;;;5065980;28;19919;-75
2023/03/17 06:28:19;;;;;;;;;;;6.70;98.30;;;;;;5051551;28;19916;-75
2023/03/17 06:30:44;;;;;;;;;;;6.70;98.30;;;;;;5066590;28;19917;-76
2023/03/17 06:33:10;;;;;;;;;;;6.70;98.30;;;;;;5069323;28;19915;-75
2023/03/17 06:35:36;;;;;;;;;;;6.70;98.30;;;;;;5066845;28;19920;-76
2023/03/17 06:38:02;;;;;;;;;;;6.70;98.20;;;;;;5069411;28;19916;-76
2023/03/17 06:40:28;;;;;;;;;;;6.70;98.20;;;;;;5067081;28;19919;-75
2023/03/17 06:42:53;;;;;;;;;;;6.80;98.20;;;;;;5068750;28;19908;-75
2023/03/17 06:45:19;;;;;;;;;;;6.70;98.20;;;;;;5050269;28;20296;-76
2023/03/17 06:47:45;;;;;;;;;;;6.80;98.20;;;;;;5067534;28;20243;-76
2023/03/17 06:50:11;;;;;;;;;;;6.80;98.20;;;;;;5068435;28;20413;-76
2023/03/17 06:52:36;;;;;;;;;;;6.80;98.00;;;;;;5050123;28;19921;-76
2023/03/17 06:55:03;;;;;;;;;;;6.80;98.00;;;;;;5068487;28;19924;-76
2023/03/17 06:57:28;;;;;;;;;;;6.80;97.60;;;;;;5065531;28;19959;-76
2023/03/17 06:59:54;;;;;;;;;;;6.90;97.50;;;;;;5068595;28;19944;-76
2023/03/17 07:02:19;;;;;;;;;;;6.90;97.40;;;;;;5065252;28;20352;-76
2023/03/17 07:04:45;;;;;;;;;;;6.90;97.40;;;;;;5069214;28;20434;-76
2023/03/17 07:07:11;;;;;;;;;;;6.90;97.20;;;;;;5065777;28;20420;-76
2023/03/17 07:09:36;;;;;;;;;;;7.00;97.30;;;;;;5068919;28;20010;-76
2023/03/17 07:12:03;;;;;;;;;;;7.00;97.30;;;;;;5065387;28;19919;-76
2023/03/17 07:14:31;;;;;;;;;;;7.00;97.30;;;;;;5068645;28;19921;-76
2023/03/17 07:16:57;;;;;;;;;;;7.00;97.20;;;;;;5067560;28;19924;-76
2023/03/17 07:19:22;;;;;;;;;;;7.10;97.00;;;;;;5068643;28;20015;-75
2023/03/17 07:21:48;;;;;;;;;;;7.10;97.10;;;;;;5064700;28;19917;-76
2023/03/17 07:24:13;;;;;;;;;;;7.20;97.00;;;;;;5068613;28;19990;-76
2023/03/17 07:26:39;;;;;;;;;;;7.20;97.00;;;;;;5047657;28;20019;-76
2023/03/17 07:29:04;;;;;;;;;;;7.20;97.10;;;;;;5068537;28;19978;-76
2023/03/17 07:31:30;;;;;;;;;;;7.20;97.00;;;;;;5065054;28;19908;-76
2023/03/17 07:33:56;;;;;;;;;;;7.30;96.90;;;;;;5068711;28;19922;-76
2023/03/17 07:36:22;;;;;;;;;;;7.40;96.80;;;;;;5046886;28;19913;-76
2023/03/17 07:38:47;;;;;;;;;;;7.40;96.70;;;;;;5068693;28;19919;-76
2023/03/17 07:41:13;;;;;;;;;;;7.40;96.60;;;;;;5045437;28;19920;-76
2023/03/17 07:43:38;;;;;;;;;;;7.50;96.70;;;;;;5068287;28;19995;-76
2023/03/17 07:46:04;;;;;;;;;;;7.50;96.60;;;;;;5070784;28;19918;-76
2023/03/17 07:48:30;;;;;;;;;;;7.60;96.70;;;;;;5076834;28;19925;-76
2023/03/17 07:50:56;;;;;;;;;;;7.60;96.60;;;;;;5073854;28;19913;-76
2023/03/17 07:53:21;;;;;;;;;;;7.70;96.50;;;;;;5067656;28;19916;-76
2023/03/17 07:55:47;;;;;;;;;;;7.70;96.50;;;;;;5065397;28;20329;-76
2023/03/17 07:58:12;;;;;;;;;;;7.80;96.50;;;;;;5067271;28;19919;-76
2023/03/17 08:00:38;;;;;;;;;;;7.80;96.40;;;;;;5055605;28;19919;-76
2023/03/17 08:03:04;;;;;;;;;;;7.90;96.40;;;;;;5064594;28;19989;-76
2023/03/17 08:05:30;;;;;;;;;;;7.90;96.40;;;;;;5065326;28;19917;-76
2023/03/17 08:07:56;;;;;;;;;;;8.00;96.40;;;;;;5063506;28;19912;-77
2023/03/17 08:10:21;;;;;;;;;;;8.00;96.20;;;;;;5066299;28;20362;-77
2023/03/17 08:12:50;;;;;;;;;;;8.10;96.50;;;;;;5066506;28;20023;-77
2023/03/17 08:15:16;;;;;;;;;;;8.20;96.20;;;;;;5067210;28;19912;-76
2023/03/17 08:17:42;;;;;;;;;;;8.20;96.50;;;;;;5076534;28;19917;-77
2023/03/17 08:20:08;;;;;;;;;;;8.30;96.40;;;;;;5057484;28;19928;-77
2023/03/17 08:22:34;;;;;;;;;;;8.30;96.40;;;;;;5056409;28;19923;-77
2023/03/17 08:25:00;;;;;;;;;;;8.40;96.40;;;;;;5076742;28;19927;-77
2023/03/17 08:27:26;;;;;;;;;;;8.40;96.50;;;;;;5074861;28;20258;-77
2023/03/17 08:29:51;;;;;;;;;;;8.40;96.50;;;;;;5073234;28;19916;-77
2023/03/17 08:32:17;;;;;;;;;;;8.50;96.40;;;;;;5062108;28;20316;-77
2023/03/17 08:34:43;;;;;;;;;;;8.50;96.80;;;;;;5071648;28;19964;-77
2023/03/17 08:37:09;;;;;;;;;;;8.50;96.10;;;;;;5052785;28;19909;-77
2023/03/17 08:39:35;;;;;;;;;;;8.60;96.30;;;;;;5072016;28;20294;-77
2023/03/17 08:42:01;;;;;;;;;;;8.70;96.60;;;;;;5052845;28;19919;-77
2023/03/17 08:44:27;;;;;;;;;;;8.70;96.50;;;;;;5071745;28;19919;-77
2023/03/17 08:46:52;;;;;;;;;;;8.80;96.40;;;;;;5068374;28;20261;-77
2023/03/17 08:49:18;;;;;;;;;;;8.80;96.20;;;;;;5071401;28;19995;-77
2023/03/17 08:51:43;;;;;;;;;;;8.90;96.30;;;;;;5068022;28;19967;-77
2023/03/17 08:54:09;;;;;;;;;;;8.90;96.40;;;;;;5071278;28;19921;-77
2023/03/17 08:56:35;;;;;;;;;;;8.90;96.30;;;;;;5068288;28;19908;-77
2023/03/17 08:59:01;;;;;;;;;;;9.00;96.30;;;;;;5071022;28;19909;-77
2023/03/17 09:01:27;;;;;;;;;;;9.00;96.30;;;;;;5063685;28;19977;-77
2023/03/17 09:03:53;;;;;;;;;;;9.10;96.20;;;;;;5068743;28;19909;-77
2023/03/17 09:06:20;;;;;;;;;;;9.20;96.00;;;;;;5058419;28;19913;-78
2023/03/17 09:08:46;;;;;;;;;;;9.20;96.00;;;;;;5060436;28;19948;-78
2023/03/17 09:11:16;;;;;;;;;;;9.20;96.10;;;;;;5050395;28;19908;-77
2023/03/17 09:13:42;;;;;;;;;;;9.20;96.00;;;;;;5070510;28;19908;-77
2023/03/17 09:16:10;;;;;;;;;;;9.30;96.20;;;;;;5044093;28;19970;-77
2023/03/17 09:18:36;;;;;;;;;;;9.30;95.90;;;;;;5047976;28;19915;-77
2023/03/17 09:21:02;;;;;;;;;;;9.40;96.10;;;;;;5065917;28;20293;-77
2023/03/17 09:23:28;;;;;;;;;;;9.40;96.30;;;;;;5067189;28;20613;-77
2023/03/17 09:25:53;;;;;;;;;;;9.40;96.20;;;;;;5066021;28;19973;-77
2023/03/17 09:28:19;;;;;;;;;;;9.50;96.10;;;;;;5069736;28;19924;-77
2023/03/17 09:30:44;;;;;;;;;;;9.60;96.10;;;;;;5064074;28;19939;-77
2023/03/17 09:33:10;;;;;;;;;;;9.60;96.10;;;;;;5069710;28;19999;-77
2023/03/17 09:35:37;;;;;;;;;;;9.60;96.10;;;;;;5062582;28;19912;-77
2023/03/17 09:38:02;;;;;;;;;;;9.70;96.00;;;;;;5070055;28;19912;-77
2023/03/17 09:40:32;;;;;;;;;;;9.70;95.90;;;;;;5064032;28;20368;-77
2023/03/17 09:43:34;;;;;;;;;;;9.80;95.80;;;;;;5070205;28;19912;-77
2023/03/17 09:46:25;;;;;;;;;;;9.80;95.60;;;;;;4973798;28;19918;-77
2023/03/17 09:48:57;;;;;;;;;;;9.90;95.50;;;;;;5056444;28;20363;-77
2023/03/17 09:51:22;;;;;;;;;;;10.00;95.70;;;;;;5066643;28;19939;-77
2023/03/17 09:53:48;;;;;;;;;;;10.00;95.50;;;;;;5069495;28;20597;-77
2023/03/17 09:56:15;;;;;;;;;;;10.10;95.40;;;;;;5063639;28;19913;-77
2023/03/17 09:58:44;;;;;;;;;;;10.10;95.50;;;;;;5069258;28;20003;-78
2023/03/17 10:01:12;;;;;;;;;;;10.20;95.60;;;;;;5062987;28;19912;-78
2023/03/17 10:03:37;;;;;;;;;;;10.20;95.60;;;;;;5069452;28;20007;-77
2023/03/17 10:06:32;;;;;;;;;;;10.30;95.40;;;;;;5062111;28;19991;-77
2023/03/17 10:09:09;;;;;;;;;;;10.30;95.20;;;;;;5066728;28;19916;-77
2023/03/17 10:11:39;;;;;;;;;;;10.30;95.30;;;;;;5061860;28;19916;-78
2023/03/17 10:14:26;;;;;;;;;;;10.40;95.20;;;;;;5067986;28;19913;-78
2023/03/17 10:16:59;;;;;;;;;;;10.40;95.30;;;;;;5041585;28;19999;-78
2023/03/17 10:19:30;;;;;;;;;;;10.50;95.30;;;;;;5067681;28;19912;-77
2023/03/17 10:22:16;;;;;;;;;;;10.50;95.20;;;;;;5067735;28;19922;-78
2023/03/17 10:24:48;;;;;;;;;;;10.50;95.30;;;;;;5060653;28;19916;-78
2023/03/17 10:27:14;;;;;;;;;;;10.60;95.00;;;;;;5068764;28;19912;-78
2023/03/17 10:29:40;;;;;;;;;;;10.60;95.20;;;;;;5065417;28;19912;-78
2023/03/17 10:32:08;;;;;;;;;;;10.60;95.00;;;;;;5067454;28;20368;-78
2023/03/17 10:34:33;;;;;;;;;;;10.70;95.30;;;;;;5049030;28;19919;-78
2023/03/17 10:36:59;;;;;;;;;;;10.70;95.30;;;;;;5044120;28;20702;-78
2023/03/17 10:39:25;;;;;;;;;;;10.70;95.60;;;;;;5066515;28;20410;-78
2023/03/17 10:41:55;;;;;;;;;;;10.70;95.60;;;;;;5065677;28;19947;-78
2023/03/17 10:44:28;;;;;;;;;;;10.80;95.50;;;;;;5049846;28;19919;-78
2023/03/17 10:46:54;;;;;;;;;;;10.80;95.30;;;;;;5066110;28;19908;-78
2023/03/17 10:49:22;;;;;;;;;;;10.90;95.10;;;;;;5067068;28;19920;-78
2023/03/17 10:51:49;;;;;;;;;;;10.90;95.20;;;;;;5060477;28;19913;-78
2023/03/17 10:54:19;;;;;;;;;;;11.00;95.20;;;;;;5066936;28;19917;-79
2023/03/17 10:56:58;;;;;;;;;;;11.00;95.30;;;;;;5060392;28;19924;-78
2023/03/17 10:59:31;;;;;;;;;;;11.10;95.30;;;;;;5065767;28;19921;-78
2023/03/17 11:01:58;;;;;;;;;;;11.10;95.40;;;;;;5065739;28;19972;-78
2023/03/17 11:04:29;;;;;;;;;;;11.10;95.60;;;;;;5067391;28;19982;-79
2023/03/17 11:06:56;;;;;;;;;;;11.10;95.70;;;;;;5051005;28;20011;-78
2023/03/17 11:09:22;;;;;;;;;;;11.20;95.50;;;;;;5067306;28;19919;-78
2023/03/17 11:11:48;;;;;;;;;;;11.30;95.40;;;;;;5065231;28;20405;-78
2023/03/17 11:14:17;;;;;;;;;;;11.40;95.40;;;;;;5067295;28;20439;-78
2023/03/17 11:16:56;;;;;;;;;;;11.40;95.50;;;;;;5064379;28;20009;-78
2023/03/17 11:19:40;;;;;;;;;;;11.50;95.50;;;;;;5066396;28;19970;-78
2023/03/17 11:22:29;;;;;;;;;;;11.60;94.90;;;;;;5064427;28;20007;-78
2023/03/17 11:25:01;;;;;;;;;;;11.70;95.40;;;;;;5051503;28;20273;-78
2023/03/17 11:27:32;;;;;;;;;;;11.80;95.20;;;;;;5056762;28;19913;-78
2023/03/17 11:30:08;;;;;;;;;;;12.00;95.50;;;;;;5076149;28;19912;-79
2023/03/17 11:32:47;;;;;;;;;;;12.00;95.20;;;;;;5077109;28;19916;-78
2023/03/17 11:35:13;;;;;;;;;;;12.10;95.40;;;;;;5076433;28;20456;-79
2023/03/17 11:37:54;;;;;;;;;;;12.20;95.40;;;;;;5078050;28;19995;-78
2023/03/17 11:40:32;;;;;;;;;;;12.30;95.40;;;;;;5072754;28;19942;-78
2023/03/17 11:43:06;;;;;;;;;;;12.40;95.50;;;;;;5075014;28;20026;-78
2023/03/17 11:45:36;;;;;;;;;;;12.50;95.10;;;;;;5071924;28;19913;-78
2023/03/17 11:48:02;;;;;;;;;;;12.60;95.10;;;;;;5074648;28;19919;-78
2023/03/17 11:50:46;;;;;;;;;;;12.70;95.20;;;;;;5073247;28;19912;-78
2023/03/17 11:53:21;;;;;;;;;;;12.80;95.20;;;;;;5072528;28;19920;-78
2023/03/17 11:55:56;;;;;;;;;;;12.90;95.10;;;;;;5071946;28;19916;-78
2023/03/17 11:58:25;;;;;;;;;;;12.90;95.20;;;;;;5054846;28;20398;-79
2023/03/17 12:00:55;;;;;;;;;;;13.00;95.40;;;;;;5070642;28;19912;-78
2023/03/17 12:03:21;;;;;;;;;;;13.10;95.20;;;;;;5076351;28;19912;-78
2023/03/17 12:05:49;;;;;;;;;;;13.10;95.10;;;;;;5074582;28;20020;-78
2023/03/17 12:08:15;;;;;;;;;;;13.20;95.30;;;;;;5073143;28;19912;-78
2023/03/17 12:10:50;;;;;;;;;;;13.20;95.10;;;;;;5074140;28;19908;-78
2023/03/17 12:13:20;;;;;;;;;;;13.30;95.00;;;;;;5056426;28;19954;-78
2023/03/17 12:15:49;;;;;;;;;;;13.30;95.20;;;;;;5074180;28;19916;-78
2023/03/17 12:18:19;;;;;;;;;;;13.40;95.20;;;;;;5075838;28;20446;-78
2023/03/17 12:20:56;;;;;;;;;;;13.40;95.10;;;;;;5073640;28;19931;-78
2023/03/17 12:23:46;;;;;;;;;;;13.50;94.80;;;;;;5054134;28;20589;-78
2023/03/17 12:26:27;;;;;;;;;;;13.50;94.80;;;;;;5064050;28;20269;-79
2023/03/17 12:29:02;;;;;;;;;;;13.50;95.00;;;;;;5075719;28;19919;-78
2023/03/17 12:31:33;;;;;;;;;;;13.50;95.20;;;;;;5073435;28;20365;-78
2023/03/17 12:34:09;;;;;;;;;;;13.60;95.10;;;;;;5073329;28;19920;-78
2023/03/17 12:36:35;;;;;;;;;;;13.60;95.20;;;;;;5072503;28;19912;-78
2023/03/17 12:39:05;;;;;;;;;;;13.60;95.20;;;;;;5055670;28;19915;-78
2023/03/17 12:41:31;;;;;;;;;;;13.60;95.10;;;;;;5074133;28;19915;-78
2023/03/17 12:44:00;;;;;;;;;;;13.70;95.20;;;;;;5074261;28;19908;-78
2023/03/17 12:46:44;;;;;;;;;;;13.70;95.20;;;;;;5071891;28;19947;-79
2023/03/17 12:49:29;;;;;;;;;;;13.70;95.20;;;;;;5066546;28;20029;-78
2023/03/17 12:52:14;;;;;;;;;;;13.70;95.10;;;;;;5022170;28;19920;-78
2023/03/17 12:54:43;;;;;;;;;;;13.80;95.40;;;;;;5075354;28;20007;-79
2023/03/17 12:57:20;;;;;;;;;;;13.80;95.30;;;;;;5074526;28;19920;-78
2023/03/17 12:59:47;;;;;;;;;;;13.90;95.30;;;;;;5055665;28;19962;-78
2023/03/17 13:02:28;;;;;;;;;;;13.90;95.20;;;;;;5065429;28;19924;-79
2023/03/17 13:04:59;;;;;;;;;;;13.90;95.40;;;;;;5060675;28;19909;-79
2023/03/17 13:07:51;;;;;;;;;;;13.90;95.20;;;;;;5066082;28;19912;-78
2023/03/17 13:10:36;;;;;;;;;;;13.90;95.20;;;;;;5043578;28;19947;-78
2023/03/17 13:13:07;;;;;;;;;;;14.00;95.20;;;;;;5066428;28;19938;-78
2023/03/17 13:15:33;;;;;;;;;;;14.00;95.30;;;;;;5065203;28;19916;-79
2023/03/17 13:18:11;;;;;;;;;;;14.10;95.10;;;;;;5048712;28;19912;-78
2023/03/17 13:20:40;;;;;;;;;;;14.10;95.00;;;;;;5070862;28;20396;-78
2023/03/17 13:23:08;;;;;;;;;;;14.10;95.30;;;;;;5078560;28;20030;-78
2023/03/17 13:25:37;;;;;;;;;;;14.20;95.20;;;;;;5079253;28;19915;-79
2023/03/17 13:28:11;;;;;;;;;;;14.20;95.10;;;;;;5080418;28;20326;-78
2023/03/17 13:30:37;;;;;;;;;;;14.20;95.10;;;;;;5078194;28;19916;-78
2023/03/17 13:33:08;;;;;;;;;;;14.20;95.30;;;;;;5077564;28;19937;-78
2023/03/17 13:35:53;;;;;;;;;;;14.30;95.30;;;;;;5059514;28;19923;-79
2023/03/17 13:38:33;;;;;;;;;;;14.30;95.30;;;;;;5077122;28;19965;-78
2023/03/17 13:41:17;;;;;;;;;;;14.30;95.60;;;;;;5074057;28;20583;-78
2023/03/17 13:43:43;;;;;;;;;;;14.30;95.40;;;;;;5079867;28;19919;-78
2023/03/17 13:46:17;;;;;;;;;;;14.40;95.40;;;;;;5077592;28;20524;-79
2023/03/17 13:48:43;;;;;;;;;;;14.40;95.10;;;;;;5078380;28;19966;-78
2023/03/17 13:51:11;;;;;;;;;;;14.40;95.30;;;;;;5074634;28;19913;-78
2023/03/17 13:53:48;;;;;;;;;;;14.40;95.30;;;;;;5076903;28;19911;-79
2023/03/17 13:56:16;;;;;;;;;;;14.40;95.10;;;;;;5074591;28;20265;-78
2023/03/17 13:58:52;;;;;;;;;;;14.50;95.30;;;;;;5076101;28;19920;-79
2023/03/17 14:01:18;;;;;;;;;;;14.50;95.40;;;;;;5078581;28;19908;-79
2023/03/17 14:03:47;;;;;;;;;;;14.50;95.60;;;;;;5060183;28;19990;-79
2023/03/17 14:06:13;;;;;;;;;;;14.50;95.30;;;;;;5076567;28;19981;-78
2023/03/17 14:08:42;;;;;;;;;;;14.60;95.20;;;;;;5075532;28;20163;-78
2023/03/17 14:11:26;;;;;;;;;;;14.60;95.20;;;;;;5067649;28;19912;-79
2023/03/17 14:13:58;;;;;;;;;;;14.60;95.10;;;;;;5076883;28;19920;-79
2023/03/17 14:16:26;;;;;;;;;;;14.60;95.10;;;;;;5078309;28;19923;-78
2023/03/17 14:18:58;;;;;;;;;;;14.60;95.30;;;;;;5076761;28;19939;-79
2023/03/17 14:21:28;;;;;;;;;;;14.60;95.30;;;;;;5057584;28;19932;-78
2023/03/17 14:23:54;;;;;;;;;;;14.60;95.30;;;;;;5076619;28;19908;-78
2023/03/17 14:26:21;;;;;;;;;;;14.60;95.40;;;;;;5077273;28;19924;-79
2023/03/17 14:28:47;;;;;;;;;;;14.60;95.40;;;;;;5058631;28;19912;-78
2023/03/17 14:31:19;;;;;;;;;;;14.70;95.30;;;;;;5075372;28;19923;-79